Time;durP1;ratioP1;P1;durP2;ratioP2;P2;SDS_P1;SDS_P2;PMS_P1;PMS_P2;Temp;Humidity;BMP_temperature;BMP_pressure;BME280_temperature;BME280_humidity;BME280_pressure;Samples;Min_cycle;Max_cycle;Signal;HPM_P1;HPM_P2
2021/05/31 00:02:00;;;;;;;8.30;4.30;;;;;;;5.73;100.00;101673.13;4975214;28;20721;-72
2021/05/31 00:04:26;;;;;;;5.57;4.70;;;;;;;5.75;100.00;101671.44;4971484;28;20650;-72
2021/05/31 00:06:58;;;;;;;5.80;4.63;;;;;;;5.49;100.00;101667.72;4979413;28;20198;-71
2021/05/31 00:09:24;;;;;;;4.97;4.00;;;;;;;5.35;100.00;101666.69;4972748;28;20277;-71
2021/05/31 00:11:50;;;;;;;6.83;4.00;;;;;;;5.37;100.00;101666.72;4976250;28;20205;-71
2021/05/31 00:14:17;;;;;;;5.00;4.40;;;;;;;5.37;100.00;101661.53;4971390;28;20211;-71
2021/05/31 00:16:43;;;;;;;5.20;4.50;;;;;;;5.40;100.00;101659.84;4974193;28;20225;-71
2021/05/31 00:19:10;;;;;;;5.73;4.30;;;;;;;5.43;100.00;101662.47;4988007;28;20281;-71
2021/05/31 00:21:36;;;;;;;6.07;4.50;;;;;;;5.18;100.00;101668.19;4966196;28;20203;-71
2021/05/31 00:24:03;;;;;;;6.47;4.10;;;;;;;5.25;100.00;101654.50;4981055;28;20288;-71
2021/05/31 00:26:29;;;;;;;5.13;4.33;;;;;;;5.42;100.00;101652.97;4974370;28;20666;-71
2021/05/31 00:28:55;;;;;;;4.87;4.33;;;;;;;5.41;100.00;101655.53;4972575;28;20259;-71
2021/05/31 00:31:22;;;;;;;6.40;4.47;;;;;;;5.34;100.00;101644.25;4978675;28;20667;-71
2021/05/31 00:33:47;;;;;;;5.00;4.00;;;;;;;5.15;100.00;101639.72;4962669;28;20257;-71
2021/05/31 00:36:16;;;;;;;5.80;4.17;;;;;;;5.08;100.00;101651.69;4968984;28;20449;-71
2021/05/31 00:38:43;;;;;;;6.30;4.40;;;;;;;5.10;100.00;101645.69;4974985;28;20221;-71
2021/05/31 00:41:09;;;;;;;6.23;4.60;;;;;;;5.06;100.00;101648.22;4976036;28;20198;-71
2021/05/31 00:43:35;;;;;;;5.63;4.53;;;;;;;5.28;100.00;101649.38;4976463;28;20625;-71
2021/05/31 00:46:02;;;;;;;5.90;4.20;;;;;;;5.33;100.00;101642.53;4974401;28;20226;-71
2021/05/31 00:48:29;;;;;;;6.23;4.27;;;;;;;5.02;100.00;101652.47;4974967;28;20215;-71
2021/05/31 00:50:57;;;;;;;6.33;4.00;;;;;;;5.00;100.00;101649.00;4973337;28;20214;-71
2021/05/31 00:53:23;;;;;;;5.43;4.00;;;;;;;4.98;100.00;101650.72;4971178;28;20775;-72
2021/05/31 00:55:49;;;;;;;5.30;4.73;;;;;;;5.12;100.00;101649.16;4980168;28;20252;-72
2021/05/31 00:58:16;;;;;;;6.67;4.57;;;;;;;4.96;100.00;101643.78;4974288;28;20237;-71
2021/05/31 01:00:43;;;;;;;5.17;4.37;;;;;;;5.00;100.00;101654.19;4975712;28;20282;-71
2021/05/31 01:03:09;;;;;;;4.70;3.90;;;;;;;4.79;100.00;101651.31;4972311;28;20198;-71
2021/05/31 01:05:36;;;;;;;5.87;4.43;;;;;;;4.71;100.00;101646.03;4967031;28;20790;-71
2021/05/31 01:08:07;;;;;;;6.57;4.63;;;;;;;4.73;100.00;101644.31;4973232;28;20198;-71
2021/05/31 01:10:41;;;;;;;5.10;3.93;;;;;;;4.85;100.00;101647.06;4970006;28;20198;-71
2021/05/31 01:13:14;;;;;;;5.13;4.17;;;;;;;4.89;100.00;101642.81;4978049;28;20833;-71
2021/05/31 01:15:46;;;;;;;5.07;3.93;;;;;;;5.02;100.00;101649.91;4970875;28;20221;-72
2021/05/31 01:18:18;;;;;;;4.90;3.63;;;;;;;5.01;100.00;101642.97;4976374;28;20213;-71
2021/05/31 01:20:55;;;;;;;5.03;4.07;;;;;;;4.95;100.00;101644.63;4976693;28;20280;-71
2021/05/31 01:23:26;;;;;;;4.13;3.57;;;;;;;4.73;100.00;101650.38;4970938;28;20675;-71
2021/05/31 01:25:59;;;;;;;5.07;3.93;;;;;;;4.51;100.00;101651.75;4975726;28;20222;-70
2021/05/31 01:28:46;;;;;;;4.90;4.17;;;;;;;4.53;100.00;101647.47;4969505;28;20649;-71
2021/05/31 01:31:15;;;;;;;4.47;3.83;;;;;;;4.81;100.00;101647.88;4990510;28;20252;-71
2021/05/31 01:33:42;;;;;;;4.60;3.53;;;;;;;4.89;100.00;101641.13;4972946;28;20212;-71
2021/05/31 01:36:09;;;;;;;5.23;3.80;;;;;;;4.89;100.00;101650.56;4972138;28;20236;-71
2021/05/31 01:38:39;;;;;;;6.03;3.63;;;;;;;4.55;100.00;101643.19;4977012;28;20206;-71
2021/05/31 01:41:06;;;;;;;4.93;3.97;;;;;;;4.46;100.00;101647.38;4969459;28;20213;-70
2021/05/31 01:43:33;;;;;;;4.10;3.27;;;;;;;4.32;100.00;101647.16;4975129;28;20201;-71
2021/05/31 01:46:01;;;;;;;5.33;3.60;;;;;;;4.33;100.00;101643.75;4970964;28;20639;-70
2021/05/31 01:48:27;;;;;;;4.90;4.17;;;;;;;4.20;100.00;101639.22;4968147;28;20292;-72
2021/05/31 01:50:54;;;;;;;4.27;3.70;;;;;;;4.22;100.00;101633.25;4985482;28;20554;-70
2021/05/31 01:53:20;;;;;;;4.83;3.70;;;;;;;4.30;100.00;101631.63;4960115;28;20255;-71
2021/05/31 01:55:48;;;;;;;5.57;4.20;;;;;;;4.30;100.00;101636.81;4972041;28;20584;-71
2021/05/31 01:58:14;;;;;;;3.63;3.17;;;;;;;4.51;100.00;101632.81;4975474;28;20231;-70
2021/05/31 02:00:40;;;;;;;4.77;3.63;;;;;;;4.57;100.00;101632.91;4976826;28;20210;-70
2021/05/31 02:03:08;;;;;;;5.47;3.50;;;;;;;4.26;100.00;101636.75;4971469;28;20210;-71
2021/05/31 02:05:34;;;;;;;4.40;3.77;;;;;;;4.14;100.00;101634.81;4972735;28;20604;-70
2021/05/31 02:08:00;;;;;;;6.47;4.00;;;;;;;3.93;100.00;101643.94;4980811;28;20194;-71
2021/05/31 02:10:26;;;;;;;4.27;3.67;;;;;;;4.08;100.00;101633.03;4972348;28;20293;-71
2021/05/31 02:12:55;;;;;;;6.13;3.73;;;;;;;4.26;100.00;101635.03;4989635;28;20196;-71
2021/05/31 02:15:27;;;;;;;5.07;3.70;;;;;;;4.33;100.00;101636.00;4980216;28;20304;-72
2021/05/31 02:18:03;;;;;;;4.47;3.60;;;;;;;4.06;100.00;101637.25;4982601;28;20701;-72
2021/05/31 02:20:31;;;;;;;5.17;3.77;;;;;;;3.94;100.00;101630.19;4977976;28;20205;-71
2021/05/31 02:22:59;;;;;;;4.70;3.63;;;;;;;3.83;100.00;101633.44;4970858;28;20197;-71
2021/05/31 02:25:26;;;;;;;4.23;3.10;;;;;;;3.97;100.00;101634.53;4972754;28;20224;-71
2021/05/31 02:27:53;;;;;;;6.43;3.43;;;;;;;3.89;100.00;101633.56;4980749;28;20547;-71
2021/05/31 02:30:20;;;;;;;4.93;4.00;;;;;;;3.75;100.00;101629.00;4978799;28;20680;-70
2021/05/31 02:32:51;;;;;;;5.80;3.57;;;;;;;3.87;100.00;101630.06;4973368;28;20529;-72
2021/05/31 02:35:17;;;;;;;6.17;4.00;;;;;;;4.03;100.00;101628.59;4978151;28;20213;-71
2021/05/31 02:37:45;;;;;;;6.17;3.97;;;;;;;4.07;100.00;101626.09;4979918;28;20217;-70
2021/05/31 02:40:12;;;;;;;5.37;3.60;;;;;;;4.11;100.00;101621.88;4975021;28;20194;-72
2021/05/31 02:42:38;;;;;;;5.50;3.57;;;;;;;3.97;100.00;101609.63;4977779;28;20205;-70
2021/05/31 02:45:05;;;;;;;5.00;3.73;;;;;;;3.78;100.00;101617.84;4976736;28;20233;-70
2021/05/31 02:47:31;;;;;;;4.57;3.97;;;;;;;4.02;100.00;101608.81;4976567;28;20201;-72
2021/05/31 02:49:57;;;;;;;5.17;3.77;;;;;;;3.96;100.00;101614.75;4979994;28;20292;-72
2021/05/31 02:52:23;;;;;;;5.20;3.70;;;;;;;3.89;100.00;101611.19;4974797;28;20708;-71
2021/05/31 02:54:50;;;;;;;6.23;4.03;;;;;;;3.91;100.00;101614.66;4974245;28;20386;-70
2021/05/31 02:57:16;;;;;;;4.73;3.70;;;;;;;4.11;100.00;101614.13;4981133;28;20967;-70
2021/05/31 02:59:42;;;;;;;4.13;3.50;;;;;;;3.91;100.00;101617.25;4975981;28;20202;-70
2021/05/31 03:02:08;;;;;;;7.17;3.70;;;;;;;3.92;100.00;101620.69;4973951;28;20218;-71
2021/05/31 03:04:34;;;;;;;4.43;3.60;;;;;;;3.77;100.00;101627.31;4977236;28;20229;-71
2021/05/31 03:07:00;;;;;;;5.53;3.80;;;;;;;3.72;100.00;101628.94;4982248;28;20204;-71
2021/05/31 03:09:26;;;;;;;8.70;4.33;;;;;;;3.64;100.00;101630.53;4978593;28;20190;-72
2021/05/31 03:11:53;;;;;;;3.83;3.47;;;;;;;3.84;100.00;101625.72;4975673;28;20197;-71
2021/05/31 03:14:19;;;;;;;4.57;3.20;;;;;;;3.83;100.00;101630.84;4973010;28;20598;-70
2021/05/31 03:16:45;;;;;;;3.90;3.43;;;;;;;3.78;100.00;101635.91;4975492;28;20276;-71
2021/05/31 03:19:11;;;;;;;6.03;3.37;;;;;;;3.89;100.00;101639.56;4983672;28;20280;-71
2021/05/31 03:21:37;;;;;;;4.50;3.30;;;;;;;3.92;100.00;101641.31;4977431;28;20206;-70
2021/05/31 03:24:04;;;;;;;4.37;3.90;;;;;;;3.83;100.00;101639.44;4985594;28;20197;-71
2021/05/31 03:26:30;;;;;;;6.47;3.70;;;;;;;3.89;100.00;101633.56;4981855;28;20201;-71
2021/05/31 03:28:57;;;;;;;3.80;3.37;;;;;;;3.88;100.00;101642.13;4979391;28;20204;-71
2021/05/31 03:31:23;;;;;;;4.30;3.57;;;;;;;3.95;100.00;101637.09;4982974;28;20190;-71
2021/05/31 03:33:49;;;;;;;3.87;3.50;;;;;;;4.06;100.00;101639.84;4981737;28;20205;-71
2021/05/31 03:36:15;;;;;;;3.73;3.30;;;;;;;4.06;100.00;101638.97;4977776;28;20316;-71
2021/05/31 03:38:41;;;;;;;4.00;3.20;;;;;;;4.03;100.00;101639.81;4993389;28;20891;-71
2021/05/31 03:41:07;;;;;;;4.17;3.40;;;;;;;4.20;100.00;101637.50;4976097;28;20214;-71
2021/05/31 03:43:34;;;;;;;4.63;3.53;;;;;;;4.13;100.00;101640.81;4990665;28;20743;-71
2021/05/31 03:46:01;;;;;;;3.77;3.37;;;;;;;4.32;100.00;101626.50;4980638;28;20755;-70
2021/05/31 03:48:27;;;;;;;5.60;3.83;;;;;;;4.22;100.00;101633.25;4978117;28;20556;-71
2021/05/31 03:51:08;;;;;;;5.30;3.40;;;;;;;4.38;100.00;101633.47;4977676;28;20260;-71
2021/05/31 03:53:34;;;;;;;4.30;3.73;;;;;;;4.44;100.00;101628.41;4978210;28;20256;-71
2021/05/31 03:56:00;;;;;;;7.57;4.00;;;;;;;4.42;100.00;101630.09;4976052;28;20218;-71
2021/05/31 03:58:26;;;;;;;5.53;4.30;;;;;;;4.41;100.00;101628.34;4982054;28;20302;-71
2021/05/31 04:00:53;;;;;;;7.53;3.47;;;;;;;4.44;100.00;101624.09;4973639;28;20598;-70
2021/05/31 04:03:20;;;;;;;9.77;4.33;;;;;;;4.60;100.00;101632.94;4981183;28;20281;-71
2021/05/31 04:05:56;;;;;;;6.23;4.67;;;;;;;4.67;100.00;101631.31;4980534;28;20221;-71
2021/05/31 04:13:51;;;;;;;7.27;4.67;;;;;;;5.25;100.00;101620.88;4957186;28;20209;-71
2021/05/31 04:16:16;;;;;;;7.03;5.17;;;;;;;5.34;100.00;101620.97;4973877;28;20217;-71
2021/05/31 04:18:44;;;;;;;6.83;5.07;;;;;;;5.47;100.00;101625.44;4971149;28;20241;-71
2021/05/31 04:21:10;;;;;;;6.40;5.20;;;;;;;5.53;100.00;101627.22;4971470;28;20190;-70
2021/05/31 04:23:36;;;;;;;7.70;5.50;;;;;;;5.55;100.00;101637.59;4977312;28;20264;-70
2021/05/31 04:26:02;;;;;;;7.53;5.53;;;;;;;5.75;100.00;101638.69;4964295;28;20225;-71
2021/05/31 04:28:28;;;;;;;8.50;5.30;;;;;;;5.95;100.00;101640.59;4970644;28;20244;-71
2021/05/31 04:30:54;;;;;;;8.40;5.23;;;;;;;5.98;100.00;101636.34;4978869;28;20586;-70
2021/05/31 04:33:20;;;;;;;6.77;4.70;;;;;;;6.10;100.00;101647.66;4980658;28;20198;-71
2021/05/31 04:35:47;;;;;;;7.40;5.10;;;;;;;6.22;100.00;101639.97;4974195;28;20233;-71
2021/05/31 04:38:13;;;;;;;8.77;5.60;;;;;;;6.32;100.00;101643.53;4975340;28;20331;-71
2021/05/31 04:40:39;;;;;;;7.53;5.40;;;;;;;6.41;99.06;101646.16;4967548;28;20673;-71
2021/05/31 04:43:05;;;;;;;8.03;5.00;;;;;;;6.50;97.14;101646.22;4976538;28;20237;-72
2021/05/31 04:45:31;;;;;;;6.10;4.83;;;;;;;6.62;96.92;101648.03;4973360;28;20219;-72
2021/05/31 04:47:57;;;;;;;7.07;4.97;;;;;;;6.76;95.91;101648.13;4975279;28;20743;-71
2021/05/31 04:50:23;;;;;;;6.07;5.00;;;;;;;6.91;96.41;101643.03;4972826;28;20217;-72
2021/05/31 04:52:50;;;;;;;7.30;4.97;;;;;;;7.07;95.44;101644.00;4978733;28;20248;-72
2021/05/31 04:55:17;;;;;;;7.13;4.73;;;;;;;7.15;93.63;101646.59;4973021;28;20564;-71
2021/05/31 04:57:44;;;;;;;8.87;5.83;;;;;;;7.30;92.01;101649.25;4973253;28;20955;-71
2021/05/31 05:00:11;;;;;;;7.20;5.00;;;;;;;7.45;93.67;101639.78;4957999;28;21118;-71
2021/05/31 05:02:37;;;;;;;9.63;5.07;;;;;;;7.62;92.95;101642.44;4976910;28;20621;-71
2021/05/31 05:05:03;;;;;;;7.77;5.70;;;;;;;7.75;91.96;101639.00;4969950;28;20257;-71
2021/05/31 05:07:29;;;;;;;8.53;5.13;;;;;;;7.92;90.51;101641.63;4975843;28;20189;-72
2021/05/31 05:09:57;;;;;;;9.07;5.17;;;;;;;8.04;91.20;101635.56;4976641;28;20210;-71
2021/05/31 05:12:23;;;;;;;7.27;4.60;;;;;;;8.14;90.33;101638.19;4969626;28;20194;-71
2021/05/31 05:14:50;;;;;;;6.50;5.20;;;;;;;8.31;89.26;101640.75;4971819;28;20249;-72
2021/05/31 05:17:16;;;;;;;6.07;4.23;;;;;;;8.43;89.55;101634.72;4970638;28;20304;-72
2021/05/31 05:19:42;;;;;;;8.00;5.10;;;;;;;8.56;89.24;101632.97;4965119;28;20210;-71
2021/05/31 05:22:08;;;;;;;7.03;4.13;;;;;;;8.70;88.40;101630.34;4974549;28;20201;-71
2021/05/31 05:24:34;;;;;;;7.60;4.67;;;;;;;8.84;88.57;101633.75;4971243;28;20217;-71
2021/05/31 05:27:05;;;;;;;8.90;4.80;;;;;;;9.00;90.36;101629.38;4964510;28;20694;-71
2021/05/31 05:29:31;;;;;;;7.37;4.47;;;;;;;9.09;87.85;101634.56;4965142;28;20946;-71
2021/05/31 05:31:58;;;;;;;7.33;5.10;;;;;;;9.21;86.37;101636.22;4965161;28;20190;-71
2021/05/31 05:34:24;;;;;;;9.23;6.53;;;;;;;9.37;86.25;101633.56;4970576;28;20224;-72
2021/05/31 05:36:54;;;;;;;10.80;6.27;;;;;;;9.51;86.54;101633.50;4970145;28;20214;-71
2021/05/31 05:42:20;;;;;;;6.83;5.13;;;;;;;9.90;86.42;101632.34;4960873;28;20553;-73
2021/05/31 05:47:42;;;;;;;9.97;5.23;;;;;;;10.21;83.08;101652.97;4971655;28;20223;-71
2021/05/31 05:50:09;;;;;;;7.33;4.97;;;;;;;10.34;82.85;101652.03;4968112;28;20227;-71
2021/05/31 05:52:36;;;;;;;8.17;4.97;;;;;;;10.48;82.03;101651.88;4966596;28;20214;-71
2021/05/31 05:55:03;;;;;;;7.10;4.90;;;;;;;10.65;81.17;101656.09;4969315;28;20362;-72
2021/05/31 05:57:30;;;;;;;8.17;5.10;;;;;;;10.63;80.04;101657.88;4970686;28;20744;-72
2021/05/31 05:59:56;;;;;;;6.67;5.03;;;;;;;10.66;80.08;101661.31;4964986;28;20205;-72
2021/05/31 06:02:22;;;;;;;6.77;4.50;;;;;;;10.78;82.08;101660.28;4962261;28;20562;-72
2021/05/31 06:04:48;;;;;;;7.83;4.77;;;;;;;10.86;81.26;101663.69;4966457;28;20289;-72
2021/05/31 06:07:14;;;;;;;6.17;4.23;;;;;;;11.09;79.33;101660.81;4972279;28;20788;-72
2021/05/31 06:09:40;;;;;;;6.10;4.53;;;;;;;11.21;80.67;101653.75;4970373;28;20212;-73
2021/05/31 06:12:07;;;;;;;6.37;4.27;;;;;;;11.27;79.19;101658.88;4968458;28;20209;-73
2021/05/31 06:14:35;;;;;;;7.67;4.50;;;;;;;11.42;78.56;101660.44;4967074;28;20230;-72
2021/05/31 06:17:01;;;;;;;6.90;4.40;;;;;;;11.39;77.33;101661.31;4967669;28;20220;-72
2021/05/31 06:19:29;;;;;;;6.57;4.50;;;;;;;11.45;77.44;101669.09;4965944;28;20296;-72
2021/05/31 06:21:54;;;;;;;6.57;4.57;;;;;;;11.55;78.78;101661.97;4976083;28;20253;-71
2021/05/31 06:24:21;;;;;;;6.63;3.80;;;;;;;11.72;78.45;101660.00;4966741;28;20225;-73
2021/05/31 06:26:46;;;;;;;7.60;4.57;;;;;;;11.77;76.02;101670.41;4973580;28;20215;-71
2021/05/31 06:29:12;;;;;;;4.30;3.63;;;;;;;11.81;75.29;101673.81;4979252;28;20213;-71
2021/05/31 06:31:40;;;;;;;6.83;4.33;;;;;;;11.86;75.09;101675.47;4976084;28;20337;-71
2021/05/31 06:34:06;;;;;;;6.73;4.70;;;;;;;11.93;75.52;101676.28;4977450;28;20241;-71
2021/05/31 06:36:34;;;;;;;6.27;4.40;;;;;;;12.05;75.02;101672.63;4972269;28;20697;-72
2021/05/31 06:39:01;;;;;;;7.30;3.83;;;;;;;12.17;75.14;101666.31;4973754;28;20251;-72
2021/05/31 06:41:26;;;;;;;4.90;4.07;;;;;;;12.32;74.62;101672.16;4981520;28;20198;-71
2021/05/31 06:43:52;;;;;;;5.50;4.07;;;;;;;12.42;74.26;101675.50;4970915;28;20237;-72
2021/05/31 06:46:18;;;;;;;6.67;4.37;;;;;;;12.50;73.58;101671.00;4967106;28;20957;-72
2021/05/31 06:48:46;;;;;;;4.57;4.00;;;;;;;12.68;74.43;101661.97;4969622;28;20287;-72
2021/05/31 06:51:13;;;;;;;4.90;3.60;;;;;;;12.89;73.49;101672.91;4975034;28;20207;-72
2021/05/31 06:53:39;;;;;;;5.90;4.03;;;;;;;12.93;74.69;101658.88;4968337;28;20213;-71
2021/05/31 06:56:05;;;;;;;7.50;3.87;;;;;;;13.01;74.87;101667.44;4980484;28;20922;-73
2021/05/31 06:58:31;;;;;;;6.20;4.20;;;;;;;13.19;71.55;101681.03;4975644;28;20298;-72
2021/05/31 07:00:58;;;;;;;6.87;4.17;;;;;;;13.20;70.78;101674.94;4979720;28;20199;-72
2021/05/31 07:03:24;;;;;;;4.33;3.50;;;;;;;13.24;70.66;101673.97;4974292;28;20253;-72
2021/05/31 07:05:51;;;;;;;5.23;3.83;;;;;;;13.32;69.14;101671.25;4969027;28;20212;-73
2021/05/31 07:08:17;;;;;;;5.23;3.80;;;;;;;13.47;71.34;101665.66;4969300;28;20287;-72
2021/05/31 07:10:45;;;;;;;7.43;3.67;;;;;;;13.54;68.57;101676.88;4971066;28;20294;-72
2021/05/31 07:13:12;;;;;;;4.80;3.63;;;;;;;13.59;69.07;101675.00;4968371;28;20209;-72
2021/05/31 07:15:40;;;;;;;5.87;3.67;;;;;;;13.71;68.75;101669.50;4972747;28;20232;-71
2021/05/31 07:18:06;;;;;;;6.30;3.93;;;;;;;13.83;69.57;101666.59;4969226;28;20287;-71
2021/05/31 07:20:32;;;;;;;5.83;4.00;;;;;;;13.90;69.50;101669.94;4973142;28;20209;-71
2021/05/31 07:22:59;;;;;;;8.47;3.97;;;;;;;14.04;68.51;101677.47;4971834;28;20221;-71
2021/05/31 07:25:25;;;;;;;5.33;4.10;;;;;;;13.90;67.49;101669.09;4972051;28;20232;-72
2021/05/31 07:27:54;;;;;;;6.60;4.07;;;;;;;14.10;67.86;101677.31;4970238;28;20219;-72
2021/05/31 07:30:20;;;;;;;6.10;4.40;;;;;;;14.17;66.23;101678.88;4969171;28;20275;-72
2021/05/31 07:32:47;;;;;;;5.33;4.23;;;;;;;14.09;66.74;101666.88;4965284;28;20206;-72
2021/05/31 07:35:13;;;;;;;6.57;4.00;;;;;;;14.22;66.25;101672.69;4967482;28;20301;-71
2021/05/31 07:37:39;;;;;;;7.73;4.20;;;;;;;14.28;65.79;101676.03;4970807;28;20714;-71
2021/05/31 07:40:10;;;;;;;6.03;4.50;;;;;;;14.33;67.62;101666.25;4971316;28;20217;-71
2021/05/31 07:42:36;;;;;;;6.03;4.80;;;;;;;14.32;65.99;101674.19;4972685;28;20198;-71
2021/05/31 07:45:04;;;;;;;5.40;4.30;;;;;;;14.31;66.43;101667.22;4968857;28;20245;-71
2021/05/31 07:47:30;;;;;;;7.33;4.60;;;;;;;14.46;65.98;101669.44;4975111;28;20235;-72
2021/05/31 07:49:56;;;;;;;5.50;4.83;;;;;;;14.51;66.13;101659.69;4965706;28;20201;-72
2021/05/31 07:52:24;;;;;;;7.43;5.00;;;;;;;14.67;67.88;101660.19;4981304;28;20204;-71
2021/05/31 07:54:51;;;;;;;6.33;4.80;;;;;;;14.82;66.71;101663.28;4971883;28;20225;-72
2021/05/31 07:57:18;;;;;;;6.83;4.60;;;;;;;14.90;65.63;101662.19;4959944;28;20752;-71
2021/05/31 07:59:46;;;;;;;6.20;4.50;;;;;;;14.96;67.13;101653.25;4970675;28;20202;-71
2021/05/31 08:02:12;;;;;;;8.03;4.40;;;;;;;15.02;64.04;101654.84;4971017;28;20205;-72
2021/05/31 08:04:38;;;;;;;7.07;4.73;;;;;;;15.08;64.16;101654.69;4972471;28;20224;-71
2021/05/31 08:07:05;;;;;;;7.37;4.70;;;;;;;15.25;64.94;101654.19;4973663;28;20794;-71
2021/05/31 08:09:30;;;;;;;6.40;4.80;;;;;;;15.44;63.46;101654.50;4965186;28;20823;-71
2021/05/31 08:11:57;;;;;;;5.70;4.60;;;;;;;15.50;64.10;101649.06;4974589;28;20211;-71
2021/05/31 08:14:25;;;;;;;11.33;4.53;;;;;;;15.50;63.61;101644.66;4970830;28;20247;-71
2021/05/31 08:16:52;;;;;;;6.00;4.17;;;;;;;15.46;61.36;101653.56;4970872;28;20706;-71
2021/05/31 08:19:19;;;;;;;5.13;4.30;;;;;;;15.62;59.65;101653.06;4972801;28;20202;-71
2021/05/31 08:21:46;;;;;;;6.70;4.00;;;;;;;15.62;59.13;101650.44;4974341;28;20212;-71
2021/05/31 08:24:12;;;;;;;4.23;3.47;;;;;;;15.70;59.88;101657.19;4972747;28;20223;-71
2021/05/31 08:26:40;;;;;;;4.47;3.60;;;;;;;15.80;57.93;101656.97;4989423;28;20232;-71
2021/05/31 08:29:06;;;;;;;5.23;3.43;;;;;;;15.75;57.86;101658.88;4963875;28;20606;-72
2021/05/31 08:31:34;;;;;;;4.30;3.57;;;;;;;15.95;58.49;101656.44;4990258;28;20213;-73
2021/05/31 08:34:00;;;;;;;5.37;3.67;;;;;;;16.05;58.49;101651.75;4966641;28;20726;-71
2021/05/31 08:36:26;;;;;;;6.63;3.87;;;;;;;16.03;56.52;101653.59;4966443;28;20218;-72
2021/05/31 08:38:57;;;;;;;3.50;3.17;;;;;;;16.12;58.41;101648.00;4968227;28;20263;-71
2021/05/31 08:41:23;;;;;;;5.00;3.53;;;;;;;16.22;57.09;101648.56;4971764;28;20296;-71
2021/05/31 08:43:49;;;;;;;5.80;3.63;;;;;;;16.42;59.66;101645.25;4969079;28;22436;-71
2021/05/31 08:46:15;;;;;;;4.07;3.47;;;;;;;16.62;55.16;101657.72;4967337;28;20234;-71
2021/05/31 08:48:43;;;;;;;5.37;3.20;;;;;;;16.71;55.27;101651.28;4968037;28;20205;-71
2021/05/31 08:51:09;;;;;;;5.47;3.60;;;;;;;16.73;54.90;101652.94;4965247;28;20213;-73
2021/05/31 08:53:36;;;;;;;5.23;3.60;;;;;;;16.71;54.39;101657.41;4973831;28;20205;-73
2021/05/31 08:56:02;;;;;;;4.10;3.47;;;;;;;16.87;54.55;101649.84;4971606;28;20232;-72
2021/05/31 08:58:28;;;;;;;5.37;2.70;;;;;;;17.10;54.01;101642.88;4969504;28;20220;-72
2021/05/31 09:00:54;;;;;;;3.97;3.00;;;;;;;17.25;52.40;101641.44;4968042;28;20236;-71
2021/05/31 09:03:20;;;;;;;3.53;2.87;;;;;;;17.32;52.28;101648.19;4975150;28;20263;-72
2021/05/31 09:05:49;;;;;;;2.80;2.60;;;;;;;17.32;50.63;101646.41;4972036;28;20225;-72
2021/05/31 09:08:17;;;;;;;4.57;2.80;;;;;;;17.14;53.40;101633.94;4973887;28;20558;-72
2021/05/31 09:10:45;;;;;;;5.30;3.03;;;;;;;17.16;50.57;101645.28;4965881;28;20576;-72
2021/05/31 09:13:13;;;;;;;4.50;2.33;;;;;;;17.11;49.13;101652.50;4973921;28;20213;-73
2021/05/31 09:15:44;;;;;;;2.63;2.10;;;;;;;17.31;47.72;101647.34;4965276;28;20227;-72
2021/05/31 09:18:10;;;;;;;3.30;1.90;;;;;;;17.53;49.01;101641.22;4972682;28;20328;-73
2021/05/31 09:20:36;;;;;;;2.80;2.20;;;;;;;17.80;47.85;101647.19;4970324;28;20202;-72
2021/05/31 09:23:04;;;;;;;3.20;2.23;;;;;;;17.73;47.46;101641.31;4972942;28;20572;-71
2021/05/31 09:25:32;;;;;;;3.07;2.40;;;;;;;17.59;47.99;101630.47;4963805;28;20296;-73
2021/05/31 09:28:01;;;;;;;3.10;1.90;;;;;;;17.82;49.31;101632.16;4964965;28;20190;-72
2021/05/31 09:30:36;;;;;;;4.33;1.73;;;;;;;17.92;45.80;101641.47;4967437;28;20202;-72
2021/05/31 09:33:03;;;;;;;2.93;1.90;;;;;;;18.03;47.10;101629.59;4965846;28;20213;-71
2021/05/31 09:35:29;;;;;;;2.47;1.80;;;;;;;18.00;45.15;101640.28;4968300;28;20226;-71
2021/05/31 09:38:01;;;;;;;3.77;1.90;;;;;;;18.00;44.88;101637.66;4963497;28;20226;-71
2021/05/31 09:40:28;;;;;;;2.73;1.90;;;;;;;17.91;44.89;101637.09;4964770;28;20276;-73
2021/05/31 09:42:57;;;;;;;2.60;2.23;;;;;;;18.00;45.50;101646.41;4968392;28;20225;-71
2021/05/31 09:45:24;;;;;;;4.43;1.90;;;;;;;17.88;45.28;101637.22;4971339;28;20225;-72
2021/05/31 09:47:50;;;;;;;3.77;2.07;;;;;;;17.79;44.72;101635.78;4963504;28;20552;-72
2021/05/31 09:50:22;;;;;;;2.00;1.80;;;;;;;18.05;45.51;101627.78;4965004;28;20212;-72
2021/05/31 09:52:58;;;;;;;3.40;2.20;;;;;;;18.19;45.56;101624.53;4969559;28;20229;-71
2021/05/31 09:55:32;;;;;;;2.47;1.97;;;;;;;18.17;43.16;101637.81;4969835;28;20268;-72
2021/05/31 09:57:58;;;;;;;5.30;2.00;;;;;;;18.21;44.13;101620.91;4986971;28;20212;-71
2021/05/31 10:00:29;;;;;;;3.70;2.20;;;;;;;18.29;44.94;101612.66;4966059;28;20233;-72
2021/05/31 10:02:58;;;;;;;3.00;2.27;;;;;;;18.45;47.77;101616.38;4966086;28;20289;-73
2021/05/31 10:05:31;;;;;;;3.93;2.10;;;;;;;18.28;43.57;101619.72;4966317;28;20225;-71
2021/05/31 10:08:02;;;;;;;3.13;2.10;;;;;;;18.09;46.61;101602.97;4967822;28;20324;-71
2021/05/31 10:10:28;;;;;;;2.37;1.90;;;;;;;18.02;45.88;101607.63;4964486;28;20216;-71
2021/05/31 10:12:57;;;;;;;2.47;2.00;;;;;;;18.07;44.52;101610.94;4963004;28;20201;-73
2021/05/31 10:15:26;;;;;;;2.83;2.00;;;;;;;17.96;43.64;101608.75;4965731;28;20268;-72
2021/05/31 10:17:54;;;;;;;4.03;2.30;;;;;;;18.02;44.97;101605.00;4963239;28;20210;-71
2021/05/31 10:20:20;;;;;;;5.87;3.27;;;;;;;18.41;45.64;101600.72;4966771;28;20251;-71
2021/05/31 10:22:46;;;;;;;2.33;2.07;;;;;;;18.54;43.04;101607.19;4968118;28;20214;-71
2021/05/31 10:25:14;;;;;;;3.13;2.00;;;;;;;18.63;43.69;101605.94;4967567;28;20233;-71
2021/05/31 10:27:43;;;;;;;2.73;1.90;;;;;;;18.44;42.76;101604.06;4963518;28;20204;-71
2021/05/31 10:30:14;;;;;;;1.87;1.53;;;;;;;18.36;41.76;101600.91;4967274;28;20194;-72
2021/05/31 10:32:40;;;;;;;2.47;1.80;;;;;;;18.33;43.35;101591.34;4965382;28;20225;-72
2021/05/31 10:35:15;;;;;;;1.90;1.60;;;;;;;18.49;43.34;101588.91;4965205;28;20229;-71
2021/05/31 10:37:51;;;;;;;2.20;1.80;;;;;;;18.61;42.63;101584.88;4962114;28;20217;-71
2021/05/31 10:40:18;;;;;;;1.90;1.70;;;;;;;18.76;41.79;101590.38;4976854;28;20299;-71
2021/05/31 10:42:46;;;;;;;2.87;1.60;;;;;;;18.99;43.42;101577.00;4967040;28;20211;-71
2021/05/31 10:45:27;;;;;;;1.57;1.47;;;;;;;19.07;44.21;101574.00;4966025;28;20226;-72
2021/05/31 10:48:01;;;;;;;3.53;2.10;;;;;;;19.07;46.31;101566.09;4966682;28;20206;-71
2021/05/31 10:50:28;;;;;;;2.87;1.77;;;;;;;18.85;42.01;101585.53;4956808;28;20289;-71
2021/05/31 10:52:56;;;;;;;3.13;1.50;;;;;;;18.89;41.47;101576.56;4964085;28;20268;-73
2021/05/31 10:55:22;;;;;;;2.83;1.70;;;;;;;18.97;44.23;101570.94;4963354;28;20230;-71
2021/05/31 10:57:48;;;;;;;3.63;1.80;;;;;;;19.03;41.42;101573.28;4964044;28;20218;-70
2021/05/31 11:00:22;;;;;;;1.90;1.60;;;;;;;19.26;41.35;101582.78;4962899;28;20277;-71
2021/05/31 11:02:49;;;;;;;2.43;1.43;;;;;;;19.39;42.08;101572.47;4967763;28;20267;-71
2021/05/31 11:05:16;;;;;;;1.90;1.60;;;;;;;19.56;40.65;101570.78;4963514;28;20479;-72
2021/05/31 11:07:43;;;;;;;2.03;1.63;;;;;;;19.47;41.87;101572.97;4974157;28;20291;-71
2021/05/31 11:10:18;;;;;;;1.60;1.50;;;;;;;19.27;40.78;101565.13;4968604;28;20237;-71
2021/05/31 11:12:45;;;;;;;3.93;1.60;;;;;;;19.23;39.86;101563.56;4966131;28;20198;-71
2021/05/31 11:15:14;;;;;;;2.87;1.93;;;;;;;19.29;39.76;101555.31;4967791;28;20867;-72
2021/05/31 11:17:48;;;;;;;2.33;1.80;;;;;;;19.48;41.36;101552.66;4972156;28;20769;-71
2021/05/31 11:20:16;;;;;;;2.27;1.70;;;;;;;19.47;40.01;101559.75;4967578;28;20216;-73
2021/05/31 11:22:52;;;;;;;1.57;1.47;;;;;;;19.53;39.44;101558.59;4972919;28;20578;-72
2021/05/31 11:25:21;;;;;;;1.93;1.73;;;;;;;19.66;40.64;101549.13;4974597;28;20230;-72
2021/05/31 11:27:52;;;;;;;2.07;1.50;;;;;;;19.67;38.42;101556.09;4976288;28;20201;-72
2021/05/31 11:30:22;;;;;;;3.07;1.70;;;;;;;19.68;41.39;101549.00;4965109;28;20197;-71
2021/05/31 11:32:50;;;;;;;2.40;1.90;;;;;;;19.82;39.43;101546.59;4975590;28;20282;-71
2021/05/31 11:35:17;;;;;;;1.60;1.40;;;;;;;19.91;38.76;101539.09;4965340;28;20297;-71
2021/05/31 11:37:45;;;;;;;2.03;1.80;;;;;;;19.86;37.20;101544.66;4973861;28;20222;-71
2021/05/31 11:40:17;;;;;;;2.50;1.50;;;;;;;19.92;38.97;101532.88;4968777;28;20210;-71